createdAt,value
2023-08-15T00:01:20.124Z,6.53
2023-08-15T00:03:47.990Z,5.93
2023-08-15T00:06:18.078Z,5.83
2023-08-15T00:08:45.641Z,5.67
2023-08-15T00:11:13.212Z,6.00
2023-08-15T00:13:40.822Z,6.23
2023-08-15T00:16:08.383Z,6.30
2023-08-15T00:18:36.074Z,6.27
2023-08-15T00:21:03.606Z,6.13
2023-08-15T00:23:31.274Z,5.90
2023-08-15T00:25:58.856Z,6.17
2023-08-15T00:28:26.439Z,6.17
2023-08-15T00:30:54.054Z,6.50
2023-08-15T00:33:21.653Z,6.00
2023-08-15T00:35:49.297Z,6.10
2023-08-15T00:38:16.886Z,6.50
2023-08-15T00:40:44.466Z,6.50
2023-08-15T00:43:12.123Z,6.50
2023-08-15T00:45:40.285Z,6.10
2023-08-15T00:48:08.320Z,5.70
2023-08-15T00:50:36.018Z,6.43
2023-08-15T00:53:04.563Z,6.90
2023-08-15T00:55:32.291Z,6.53
2023-08-15T00:58:00.216Z,6.77
2023-08-15T01:00:28.162Z,6.20
2023-08-15T01:02:56.004Z,6.70
2023-08-15T01:05:23.951Z,6.27
2023-08-15T01:07:51.764Z,6.23
2023-08-15T01:10:19.355Z,6.03
2023-08-15T01:13:02.575Z,6.67
2023-08-15T01:15:31.862Z,5.93
2023-08-15T01:18:03.755Z,6.50
2023-08-15T01:20:33.680Z,8.17
2023-08-15T01:23:02.444Z,7.53
2023-08-15T01:25:32.456Z,7.03
2023-08-15T01:28:00.904Z,6.67
2023-08-15T01:30:28.522Z,6.70
2023-08-15T01:33:06.228Z,6.17
2023-08-15T01:35:44.390Z,6.50
2023-08-15T01:38:26.145Z,6.60
2023-08-15T01:40:55.160Z,6.93
2023-08-15T01:43:22.706Z,7.03
2023-08-15T01:45:50.654Z,6.30
2023-08-15T01:48:18.242Z,6.20
2023-08-15T01:50:45.834Z,5.77
2023-08-15T01:53:13.377Z,6.07
2023-08-15T01:55:40.963Z,5.93
2023-08-15T01:58:08.512Z,5.33
2023-08-15T02:00:36.325Z,5.73
2023-08-15T02:03:03.950Z,5.47
2023-08-15T02:05:33.092Z,5.50
2023-08-15T02:08:02.563Z,5.43
2023-08-15T02:10:30.145Z,6.47
2023-08-15T02:12:57.737Z,5.57
2023-08-15T02:15:25.332Z,5.27
2023-08-15T02:17:53.138Z,5.93
2023-08-15T02:20:20.726Z,5.50
2023-08-15T02:22:48.406Z,5.37
2023-08-15T02:25:15.928Z,4.93
2023-08-15T02:27:43.541Z,5.80
2023-08-15T02:30:11.269Z,5.20
2023-08-15T02:32:38.896Z,5.27
2023-08-15T02:35:06.756Z,5.80
2023-08-15T02:37:34.361Z,5.90
2023-08-15T02:40:01.975Z,6.30
2023-08-15T02:42:29.583Z,5.93
2023-08-15T02:44:57.118Z,6.20
2023-08-15T02:47:27.939Z,6.27
2023-08-15T02:49:55.572Z,6.43
2023-08-15T02:52:23.092Z,6.83
2023-08-15T02:54:50.694Z,6.77
2023-08-15T02:57:18.336Z,7.00
2023-08-15T02:59:46.085Z,6.80
2023-08-15T03:02:14.395Z,6.73
2023-08-15T03:04:41.980Z,6.73
2023-08-15T03:07:09.489Z,7.17
2023-08-15T03:09:37.112Z,7.33
2023-08-15T03:12:04.748Z,6.90
2023-08-15T03:14:32.444Z,7.00
2023-08-15T03:17:00.008Z,6.80
2023-08-15T03:19:27.562Z,7.03
2023-08-15T03:21:55.119Z,7.23
2023-08-15T03:24:25.868Z,7.30
2023-08-15T03:26:53.718Z,7.23
2023-08-15T03:29:21.400Z,7.37
2023-08-15T03:31:48.994Z,7.33
2023-08-15T03:34:16.590Z,7.70
2023-08-15T03:36:44.159Z,8.00
2023-08-15T03:39:11.736Z,8.87
2023-08-15T03:41:39.275Z,7.07
2023-08-15T03:44:07.069Z,7.60
2023-08-15T03:46:34.627Z,7.77
2023-08-15T03:49:02.268Z,8.80
2023-08-15T03:51:45.672Z,8.53
2023-08-15T03:54:13.772Z,8.73
2023-08-15T03:56:41.306Z,8.23
2023-08-15T03:59:08.902Z,7.37
2023-08-15T04:01:37.602Z,8.47
2023-08-15T04:04:05.366Z,7.73
2023-08-15T04:06:32.966Z,8.00
2023-08-15T04:09:00.564Z,7.57
2023-08-15T04:11:28.156Z,8.10
2023-08-15T04:13:55.755Z,7.47
2023-08-15T04:16:23.441Z,7.73
2023-08-15T04:18:51.045Z,8.50
2023-08-15T04:21:18.897Z,7.70
2023-08-15T04:23:46.499Z,7.97
2023-08-15T04:26:14.039Z,7.73
2023-08-15T04:28:41.606Z,8.07
2023-08-15T04:31:09.169Z,8.27
2023-08-15T04:33:36.746Z,7.73
2023-08-15T04:36:04.415Z,8.33
2023-08-15T04:38:32.050Z,8.30
2023-08-15T04:40:59.614Z,8.87
2023-08-15T04:43:27.208Z,8.97
2023-08-15T04:45:54.803Z,9.03
2023-08-15T04:48:22.426Z,8.70
2023-08-15T04:50:52.864Z,8.27
2023-08-15T04:53:20.473Z,8.77
2023-08-15T04:55:48.047Z,8.10
2023-08-15T04:58:15.648Z,7.13
2023-08-15T05:00:43.482Z,5.17
2023-08-15T05:03:11.152Z,4.50
2023-08-15T05:05:38.804Z,4.30
2023-08-15T05:08:06.762Z,3.50
2023-08-15T05:10:34.391Z,4.10
2023-08-15T05:13:02.018Z,3.93
2023-08-15T05:15:29.571Z,3.67
2023-08-15T05:17:57.330Z,3.50
2023-08-15T05:20:24.887Z,3.67
2023-08-15T05:22:52.471Z,3.60
2023-08-15T05:25:20.003Z,3.67
2023-08-15T05:27:47.634Z,3.70
2023-08-15T05:30:15.479Z,3.50
2023-08-15T05:32:43.119Z,3.73
2023-08-15T05:35:10.699Z,3.87
2023-08-15T05:37:38.352Z,4.33
2023-08-15T05:40:06.517Z,4.00
2023-08-15T05:42:34.117Z,4.10
2023-08-15T05:45:01.668Z,4.00
2023-08-15T05:47:29.267Z,4.37
2023-08-15T05:49:56.815Z,4.20
2023-08-15T05:52:24.480Z,3.73
2023-08-15T05:54:52.058Z,4.20
2023-08-15T05:57:22.803Z,4.13
2023-08-15T05:59:50.563Z,3.77
2023-08-15T06:02:18.404Z,4.13
2023-08-15T06:04:46.115Z,4.40
2023-08-15T06:07:13.655Z,4.10
2023-08-15T06:09:41.545Z,4.13
2023-08-15T06:12:11.946Z,4.43
2023-08-15T06:14:42.228Z,4.43
2023-08-15T06:17:09.802Z,4.47
2023-08-15T06:19:37.346Z,4.10
2023-08-15T06:22:06.794Z,4.40
2023-08-15T06:24:35.450Z,4.67
2023-08-15T06:27:03.035Z,4.23
2023-08-15T06:29:30.650Z,4.20
2023-08-15T06:31:59.468Z,4.47
2023-08-15T06:34:27.154Z,3.90
2023-08-15T06:36:54.962Z,3.70
2023-08-15T06:39:25.011Z,4.03
2023-08-15T06:41:55.038Z,3.90
2023-08-15T06:44:22.910Z,4.77
2023-08-15T06:46:51.264Z,4.17
2023-08-15T06:49:18.891Z,4.30
2023-08-15T06:51:46.456Z,4.03
2023-08-15T06:54:14.045Z,4.50
2023-08-15T06:56:41.603Z,3.73
2023-08-15T06:59:09.233Z,4.20
2023-08-15T07:01:36.840Z,4.13
2023-08-15T07:04:04.682Z,4.37
2023-08-15T07:06:32.291Z,4.33
2023-08-15T07:08:59.887Z,4.30
2023-08-15T07:11:27.410Z,4.40
2023-08-15T07:13:54.993Z,3.83
2023-08-15T07:16:22.627Z,4.00
2023-08-15T07:21:26.839Z,3.80
2023-08-15T07:23:56.372Z,3.57
2023-08-15T07:26:23.944Z,3.67
2023-08-15T07:28:51.543Z,3.67
2023-08-15T07:31:19.119Z,3.80
2023-08-15T07:33:46.795Z,4.03
2023-08-15T07:36:14.339Z,3.67
2023-08-15T07:38:43.919Z,3.73
2023-08-15T07:41:11.549Z,3.93
2023-08-15T07:43:39.095Z,4.37
2023-08-15T07:46:06.710Z,4.00
2023-08-15T07:48:34.319Z,4.00
2023-08-15T07:51:01.916Z,3.73
2023-08-15T07:53:29.423Z,3.40
2023-08-15T07:55:57.012Z,3.90
2023-08-15T07:58:24.797Z,4.27
2023-08-15T08:00:52.390Z,3.93
2023-08-15T08:03:20.025Z,3.40
2023-08-15T08:05:48.193Z,3.80
2023-08-15T08:08:16.512Z,3.43
2023-08-15T08:10:44.176Z,3.30
2023-08-15T08:13:11.778Z,3.77
2023-08-15T08:15:39.536Z,3.00
2023-08-15T08:18:07.525Z,2.97
2023-08-15T08:20:35.176Z,2.77
2023-08-15T08:23:02.746Z,3.30
2023-08-15T08:25:30.345Z,2.30
2023-08-15T08:27:57.907Z,2.00
2023-08-15T08:30:26.711Z,2.90
2023-08-15T08:32:55.832Z,2.63
2023-08-15T08:35:23.450Z,2.10
2023-08-15T08:37:51.181Z,2.10
2023-08-15T08:40:18.914Z,1.90
2023-08-15T08:42:46.917Z,2.17
2023-08-15T08:45:14.593Z,1.70
2023-08-15T08:47:42.805Z,1.80
2023-08-15T08:50:10.761Z,2.40
2023-08-15T08:52:44.925Z,1.90
2023-08-15T08:55:12.644Z,1.97
2023-08-15T08:57:41.549Z,2.10
2023-08-15T09:00:10.101Z,2.00
2023-08-15T09:02:37.742Z,2.00
2023-08-15T09:05:05.870Z,1.60
2023-08-15T09:07:33.587Z,2.00
2023-08-15T09:10:01.224Z,1.80
2023-08-15T09:12:39.491Z,2.30
2023-08-15T09:15:08.058Z,2.00
2023-08-15T09:17:41.647Z,2.23
2023-08-15T09:20:13.701Z,1.87
2023-08-15T09:22:42.199Z,2.20
2023-08-15T09:25:09.978Z,1.83
2023-08-15T09:27:38.612Z,1.97
2023-08-15T09:30:13.237Z,2.10
2023-08-15T09:32:41.662Z,2.00
2023-08-15T09:35:13.451Z,2.10
2023-08-15T09:37:48.156Z,2.07
2023-08-15T09:40:17.360Z,2.53
2023-08-15T09:42:45.179Z,2.50
2023-08-15T09:45:13.727Z,2.00
2023-08-15T09:47:41.330Z,1.80
2023-08-15T09:50:09.819Z,1.93
2023-08-15T09:52:41.374Z,1.80
2023-08-15T09:55:09.795Z,2.00
2023-08-15T09:57:38.273Z,1.67
2023-08-15T10:00:07.120Z,1.90
2023-08-15T10:02:35.241Z,2.10
2023-08-15T10:05:04.681Z,1.90
2023-08-15T10:07:33.202Z,1.83
2023-08-15T10:10:03.386Z,1.53
2023-08-15T10:12:31.415Z,2.30
2023-08-15T10:14:59.304Z,2.20
2023-08-15T10:17:27.568Z,2.50
2023-08-15T10:19:56.019Z,2.53
2023-08-15T10:22:24.419Z,2.00
2023-08-15T10:24:52.173Z,2.20
2023-08-15T10:27:21.542Z,2.13
2023-08-15T10:29:59.769Z,2.20
2023-08-15T10:32:28.500Z,2.23
2023-08-15T10:35:00.128Z,2.10
2023-08-15T10:37:37.536Z,2.00
2023-08-15T10:40:08.570Z,1.80
2023-08-15T10:43:14.077Z,2.37
2023-08-15T10:45:45.892Z,2.23
2023-08-15T10:48:14.510Z,2.07
2023-08-15T10:50:46.452Z,2.10
2023-08-15T10:53:15.411Z,2.33
2023-08-15T10:55:44.332Z,1.90
2023-08-15T10:58:12.156Z,2.07
2023-08-15T11:00:40.834Z,2.00
2023-08-15T11:03:08.611Z,2.07
2023-08-15T11:05:36.569Z,2.10
2023-08-15T11:08:13.787Z,2.43
2023-08-15T11:10:48.101Z,2.50
2023-08-15T11:13:16.596Z,2.10
2023-08-15T11:15:44.845Z,2.30
2023-08-15T11:18:13.367Z,2.20
2023-08-15T11:20:41.061Z,2.15
2023-08-15T11:23:09.057Z,2.20
2023-08-15T11:25:36.602Z,1.93
2023-08-15T11:28:04.298Z,2.47
2023-08-15T11:30:31.917Z,2.20
2023-08-15T11:32:59.643Z,2.53
2023-08-15T11:35:27.331Z,1.93
2023-08-15T11:37:54.907Z,1.97
2023-08-15T11:40:22.541Z,2.37
2023-08-15T11:42:50.189Z,2.13
2023-08-15T11:45:23.141Z,2.30
2023-08-15T11:47:53.912Z,2.40
2023-08-15T11:50:27.383Z,2.10
2023-08-15T11:53:01.916Z,2.23
2023-08-15T11:55:34.296Z,2.30
2023-08-15T11:58:01.898Z,2.30
2023-08-15T12:00:29.427Z,2.03
2023-08-15T12:02:57.177Z,2.90
2023-08-15T12:05:24.771Z,2.67
2023-08-15T12:07:52.436Z,2.37
2023-08-15T12:10:20.819Z,2.63
2023-08-15T12:12:48.891Z,2.33
2023-08-15T12:15:16.681Z,2.58
2023-08-15T12:17:44.378Z,2.70
2023-08-15T12:20:13.508Z,2.50
2023-08-15T12:22:41.130Z,2.55
2023-08-15T12:25:09.477Z,2.50
2023-08-15T12:27:38.125Z,2.73
2023-08-15T12:30:12.240Z,2.70
2023-08-15T12:32:43.068Z,2.37
2023-08-15T12:35:10.710Z,2.43
2023-08-15T12:37:38.361Z,2.38
2023-08-15T12:40:09.834Z,2.63
2023-08-15T12:42:42.695Z,2.37
2023-08-15T12:45:10.342Z,2.65
2023-08-15T12:47:37.929Z,2.00
2023-08-15T12:50:05.896Z,2.00
2023-08-15T12:52:33.553Z,2.03
2023-08-15T12:55:02.346Z,2.53
2023-08-15T12:57:30.157Z,2.28
2023-08-15T12:59:57.818Z,2.45
2023-08-15T13:02:25.480Z,2.50
2023-08-15T13:04:53.109Z,2.13
2023-08-15T13:07:20.782Z,1.80
2023-08-15T13:09:48.356Z,2.03
2023-08-15T13:12:16.160Z,2.00
2023-08-15T13:14:43.741Z,1.80
2023-08-15T13:17:11.736Z,2.10
2023-08-15T13:19:39.298Z,2.20
2023-08-15T13:22:06.904Z,2.50
2023-08-15T13:24:34.478Z,2.30
2023-08-15T13:27:02.054Z,2.63
2023-08-15T13:29:29.620Z,2.17
2023-08-15T13:31:57.273Z,1.98
2023-08-15T13:34:26.437Z,2.15
2023-08-15T13:36:54.019Z,2.35
2023-08-15T13:39:21.558Z,2.10
2023-08-15T13:41:49.211Z,2.10
2023-08-15T13:44:16.742Z,2.28
2023-08-15T13:46:44.467Z,2.10
2023-08-15T13:49:12.025Z,2.45
2023-08-15T13:51:41.084Z,2.33
2023-08-15T13:54:10.777Z,2.10
2023-08-15T13:56:38.332Z,2.10
2023-08-15T13:59:05.995Z,2.15
2023-08-15T14:01:33.628Z,2.45
2023-08-15T14:04:01.526Z,2.30
2023-08-15T14:06:29.083Z,2.35
2023-08-15T14:08:56.702Z,2.35
2023-08-15T14:11:24.432Z,2.55
2023-08-15T14:13:55.203Z,2.20
2023-08-15T14:16:22.840Z,2.50
2023-08-15T14:18:50.477Z,2.22
2023-08-15T14:21:18.119Z,2.20
2023-08-15T14:23:45.811Z,2.38
2023-08-15T14:26:13.537Z,2.50
2023-08-15T14:28:43.946Z,2.25
2023-08-15T14:31:11.612Z,2.20
2023-08-15T14:33:39.163Z,2.42
2023-08-15T14:36:06.822Z,2.05
2023-08-15T14:38:34.449Z,2.20
2023-08-15T14:41:02.019Z,2.42
2023-08-15T14:43:29.604Z,2.53
2023-08-15T14:45:57.245Z,2.40
2023-08-15T14:48:24.902Z,2.50
2023-08-15T14:50:52.479Z,2.55
2023-08-15T14:53:21.226Z,2.50
2023-08-15T14:55:48.792Z,2.53
2023-08-15T14:58:16.591Z,2.67
2023-08-15T15:00:44.237Z,2.38
2023-08-15T15:03:11.866Z,2.22
2023-08-15T15:05:39.554Z,2.50
2023-08-15T15:08:07.300Z,2.42
2023-08-15T15:10:37.971Z,2.67
2023-08-15T15:13:05.696Z,2.55
2023-08-15T15:15:51.495Z,2.75
2023-08-15T15:18:20.860Z,2.80
2023-08-15T15:20:48.588Z,2.70
2023-08-15T15:23:16.745Z,2.65
2023-08-15T15:25:48.033Z,2.42
2023-08-15T15:28:16.028Z,3.08
2023-08-15T15:30:43.608Z,3.13
2023-08-15T15:33:11.254Z,2.80
2023-08-15T15:35:38.893Z,3.35
2023-08-15T15:38:06.607Z,2.63
2023-08-15T15:40:34.185Z,2.67
2023-08-15T15:43:01.902Z,2.80
2023-08-15T15:45:29.507Z,2.70
2023-08-15T15:47:57.755Z,2.85
2023-08-15T15:50:25.420Z,3.13
2023-08-15T15:52:53.066Z,3.00
2023-08-15T15:55:21.867Z,2.88
2023-08-15T15:57:49.633Z,3.15
2023-08-15T16:00:17.422Z,2.70
2023-08-15T16:02:45.320Z,2.95
2023-08-15T16:05:13.038Z,2.70
2023-08-15T16:07:40.739Z,2.63
2023-08-15T16:10:08.525Z,2.63
2023-08-15T16:12:36.356Z,2.63
2023-08-15T16:15:04.045Z,2.55
2023-08-15T16:17:31.726Z,2.63
2023-08-15T16:20:00.412Z,2.85
2023-08-15T16:22:28.086Z,2.90
2023-08-15T16:24:56.903Z,3.07
2023-08-15T16:27:24.544Z,3.38
2023-08-15T16:29:54.531Z,3.07
2023-08-15T16:32:25.199Z,3.10
2023-08-15T16:34:53.084Z,2.85
2023-08-15T16:37:20.726Z,2.87
2023-08-15T16:39:48.420Z,2.97
2023-08-15T16:42:16.087Z,3.13
2023-08-15T16:44:43.653Z,3.70
2023-08-15T16:47:11.225Z,2.88
2023-08-15T16:49:38.802Z,2.93
2023-08-15T16:52:06.369Z,2.70
2023-08-15T16:54:33.924Z,2.90
2023-08-15T16:57:01.512Z,3.20
2023-08-15T16:59:29.099Z,2.77
2023-08-15T17:01:56.694Z,2.77
2023-08-15T17:04:24.231Z,2.70
2023-08-15T17:06:51.914Z,2.80
2023-08-15T17:09:19.509Z,2.67
2023-08-15T17:11:47.144Z,2.53
2023-08-15T17:14:14.800Z,2.57
2023-08-15T17:16:42.469Z,2.70
2023-08-15T17:19:10.000Z,2.40
2023-08-15T17:21:37.579Z,2.80
2023-08-15T17:24:05.424Z,2.60
2023-08-15T17:26:33.058Z,2.83
2023-08-15T17:29:00.638Z,2.30
2023-08-15T17:31:28.350Z,2.47
2023-08-15T17:33:56.010Z,2.60
2023-08-15T17:36:23.583Z,2.90
2023-08-15T17:38:51.101Z,2.43
2023-08-15T17:41:18.731Z,2.37
2023-08-15T17:43:46.326Z,2.20
2023-08-15T17:46:19.455Z,2.57
2023-08-15T17:48:47.453Z,2.07
2023-08-15T17:51:15.266Z,2.00
2023-08-15T17:53:43.012Z,2.27
2023-08-15T17:56:10.738Z,2.57
2023-08-15T17:58:53.189Z,2.20
2023-08-15T18:01:21.167Z,1.97
2023-08-15T18:03:49.183Z,2.37
2023-08-15T18:06:17.051Z,2.00
2023-08-15T18:08:44.611Z,2.00
2023-08-15T18:11:12.218Z,2.37
2023-08-15T18:13:42.487Z,1.90
2023-08-15T18:16:10.343Z,2.10
2023-08-15T18:18:37.914Z,2.20
2023-08-15T18:21:05.524Z,1.90
2023-08-15T18:23:33.084Z,2.47
2023-08-15T18:26:00.719Z,1.80
2023-08-15T18:28:29.440Z,1.90
2023-08-15T18:30:57.241Z,2.23
2023-08-15T18:33:24.822Z,2.17
2023-08-15T18:35:55.269Z,1.97
2023-08-15T18:38:22.900Z,2.00
2023-08-15T18:40:50.545Z,2.03
2023-08-15T18:43:19.135Z,1.90
2023-08-15T18:45:47.230Z,2.10
2023-08-15T18:48:15.148Z,2.00
2023-08-15T18:50:46.294Z,2.17
2023-08-15T18:53:13.995Z,2.53
2023-08-15T18:55:43.522Z,3.50
2023-08-15T18:58:11.149Z,4.40
2023-08-15T19:00:39.349Z,4.20
2023-08-15T19:03:07.084Z,4.10
2023-08-15T19:05:34.764Z,4.47
2023-08-15T19:08:02.414Z,5.00
2023-08-15T19:10:30.012Z,5.20
2023-08-15T19:12:57.608Z,5.83
2023-08-15T19:15:25.147Z,4.97
2023-08-15T19:17:52.824Z,5.40
2023-08-15T19:20:21.303Z,5.00
2023-08-15T19:22:49.117Z,4.93
2023-08-15T19:25:16.850Z,5.33
2023-08-15T19:27:44.709Z,5.27
2023-08-15T19:30:12.852Z,5.30
2023-08-15T19:32:41.082Z,5.10
2023-08-15T19:35:08.870Z,5.93
2023-08-15T19:37:38.461Z,4.97
2023-08-15T19:40:12.659Z,6.30
2023-08-15T19:42:44.490Z,5.60
2023-08-15T19:45:16.082Z,6.03
2023-08-15T19:47:43.722Z,6.00
2023-08-15T19:50:11.554Z,5.00
2023-08-15T19:52:39.209Z,5.50
2023-08-15T21:00:46.146Z,3.40
2023-08-15T21:03:14.277Z,3.40
2023-08-15T21:05:43.199Z,3.73
2023-08-15T21:08:10.863Z,4.00
2023-08-15T21:10:38.472Z,3.70
2023-08-15T21:13:06.154Z,3.47
2023-08-15T21:15:33.679Z,3.73
2023-08-15T21:18:01.386Z,3.73
2023-08-15T21:20:29.034Z,3.53
2023-08-15T21:22:56.595Z,3.40
2023-08-15T21:25:24.287Z,3.70
2023-08-15T21:27:51.894Z,3.80
2023-08-15T21:30:19.444Z,3.37
2023-08-15T21:32:47.223Z,3.53
2023-08-15T21:35:14.851Z,3.67
2023-08-15T21:37:42.425Z,3.50
2023-08-15T21:40:10.159Z,3.53
2023-08-15T21:42:37.943Z,3.90
2023-08-15T21:45:05.645Z,4.00
2023-08-15T21:47:33.306Z,3.30
2023-08-15T21:50:01.145Z,3.77
2023-08-15T21:52:28.765Z,3.60
2023-08-15T21:54:56.568Z,4.00
2023-08-15T21:57:24.596Z,4.10
2023-08-15T21:59:52.503Z,4.20
2023-08-15T22:02:20.111Z,4.40
2023-08-15T22:04:47.668Z,4.77
2023-08-15T22:07:15.212Z,4.03
2023-08-15T22:09:42.747Z,4.97
2023-08-15T22:12:10.415Z,4.77
2023-08-15T22:14:38.145Z,4.53
2023-08-15T22:17:05.853Z,4.13
2023-08-15T22:19:33.510Z,4.43
2023-08-15T22:22:01.184Z,4.57
2023-08-15T22:24:28.695Z,5.20
2023-08-15T22:26:56.527Z,5.17
2023-08-15T22:29:24.110Z,5.00
2023-08-15T22:31:51.932Z,5.00
2023-08-15T22:34:19.460Z,4.80
2023-08-15T22:36:47.369Z,4.87
2023-08-15T22:39:15.084Z,4.53
2023-08-15T22:41:43.436Z,5.30
2023-08-15T22:44:11.079Z,4.70
2023-08-15T22:46:38.653Z,4.73
2023-08-15T22:49:06.229Z,5.60
2023-08-15T22:51:33.937Z,4.60
2023-08-15T22:54:01.487Z,4.47
2023-08-15T22:56:29.146Z,4.93
2023-08-15T22:58:56.709Z,4.63
2023-08-15T23:01:24.300Z,5.17
2023-08-15T23:03:51.906Z,4.60
2023-08-15T23:06:19.519Z,5.00
2023-08-15T23:08:47.219Z,4.90
2023-08-15T23:11:14.797Z,4.57
2023-08-15T23:13:42.314Z,4.77
2023-08-15T23:16:09.992Z,5.20
2023-08-15T23:18:37.595Z,4.37
2023-08-15T23:21:07.341Z,4.23
2023-08-15T23:23:35.113Z,4.30
2023-08-15T23:26:02.618Z,4.30
2023-08-15T23:28:30.233Z,5.10
2023-08-15T23:30:57.793Z,4.40
2023-08-15T23:33:25.584Z,4.33
2023-08-15T23:35:53.170Z,4.40
2023-08-15T23:38:21.333Z,4.67
2023-08-15T23:40:48.880Z,4.37
2023-08-15T23:43:16.501Z,4.50
2023-08-15T23:45:44.081Z,4.27
2023-08-15T23:48:11.724Z,3.93
2023-08-15T23:50:39.264Z,4.87
2023-08-15T23:53:06.934Z,4.00
2023-08-15T23:55:34.511Z,5.23
2023-08-15T23:58:02.262Z,3.87
